createdAt,value
2019-04-03T00:00:38.679Z,996.05
2019-04-03T00:01:38.658Z,996.06
2019-04-03T00:02:38.660Z,996.01
2019-04-03T00:03:38.777Z,996.02
2019-04-03T00:04:38.629Z,996.06
2019-04-03T00:05:38.714Z,996.01
2019-04-03T00:06:38.603Z,995.95
2019-04-03T00:07:38.602Z,995.94
2019-04-03T00:08:38.613Z,995.96
2019-04-03T00:09:38.583Z,995.93
2019-04-03T00:10:38.568Z,995.91
2019-04-03T00:11:39.757Z,995.92
2019-04-03T00:12:40.468Z,995.91
2019-04-03T00:13:41.582Z,995.90
2019-04-03T00:14:38.528Z,995.90
2019-04-03T00:15:38.506Z,995.86
2019-04-03T00:16:38.495Z,995.87
2019-04-03T00:17:38.481Z,995.85
2019-04-03T00:18:38.504Z,995.85
2019-04-03T00:20:39.620Z,995.85
2019-04-03T00:21:38.436Z,995.89
2019-04-03T00:22:38.437Z,995.87
2019-04-03T00:23:38.467Z,995.87
2019-04-03T00:24:38.398Z,995.86
2019-04-03T00:25:38.478Z,995.86
2019-04-03T00:26:38.383Z,995.82
2019-04-03T00:27:38.373Z,995.81
2019-04-03T00:28:38.384Z,995.83
2019-04-03T00:29:38.371Z,995.84
2019-04-03T00:30:38.351Z,995.91
2019-04-03T00:31:38.326Z,995.89
2019-04-03T00:32:38.320Z,995.90
2019-04-03T00:33:38.329Z,995.90
2019-04-03T00:34:38.425Z,995.88
2019-04-03T00:35:38.283Z,995.92
2019-04-03T00:36:38.267Z,995.92
2019-04-03T00:37:38.278Z,995.95
2019-04-03T00:39:39.352Z,995.91
2019-04-03T00:40:38.349Z,995.91
2019-04-03T00:41:38.962Z,995.85
2019-04-03T00:42:38.339Z,995.98
2019-04-03T00:43:38.330Z,995.96
2019-04-03T00:44:38.350Z,995.97
2019-04-03T00:45:38.171Z,995.98
2019-04-03T00:46:38.156Z,995.95
2019-04-03T00:47:38.144Z,996.01
2019-04-03T00:48:38.153Z,996.00
2019-04-03T00:49:38.147Z,996.04
2019-04-03T00:50:38.111Z,996.06
2019-04-03T00:51:38.197Z,996.04
2019-04-03T00:52:38.096Z,996.03
2019-04-03T00:53:38.078Z,996.00
2019-04-03T00:54:38.094Z,996.02
2019-04-03T00:55:38.058Z,996.04
2019-04-03T00:56:38.054Z,995.97
2019-04-03T00:57:38.081Z,995.97
2019-04-03T00:58:38.023Z,996.00
2019-04-03T00:59:38.037Z,995.97
2019-04-03T01:00:38.107Z,996.01
2019-04-03T01:01:37.986Z,996.03
2019-04-03T01:02:37.998Z,996.08
2019-04-03T01:03:38.048Z,996.10
2019-04-03T01:04:38.003Z,996.09
2019-04-03T01:05:38.143Z,996.03
2019-04-03T01:06:37.964Z,996.08
2019-04-03T01:07:37.922Z,996.06
2019-04-03T01:08:37.916Z,996.04
2019-04-03T01:09:37.908Z,996.08
2019-04-03T01:10:38.126Z,996.07
2019-04-03T01:11:37.894Z,996.02
2019-04-03T01:12:37.906Z,996.06
2019-04-03T01:13:37.895Z,996.00
2019-04-03T01:14:37.913Z,996.01
2019-04-03T01:15:37.861Z,996.00
2019-04-03T01:16:37.933Z,995.99
2019-04-03T01:17:37.825Z,995.99
2019-04-03T01:18:37.805Z,995.96
2019-04-03T01:19:37.800Z,995.96
2019-04-03T01:20:37.885Z,995.98
2019-04-03T01:21:37.770Z,995.92
2019-04-03T01:22:37.898Z,995.90
2019-04-03T01:23:38.196Z,995.89
2019-04-03T01:24:38.796Z,995.93
2019-04-03T01:25:39.450Z,995.93
2019-04-03T01:26:40.203Z,995.94
2019-04-03T01:27:37.700Z,995.89
2019-04-03T01:28:37.697Z,995.85
2019-04-03T01:29:37.678Z,995.86
2019-04-03T01:30:37.702Z,995.84
2019-04-03T01:31:37.656Z,995.77
2019-04-03T01:32:37.651Z,995.79
2019-04-03T01:33:37.801Z,995.78
2019-04-03T01:34:37.622Z,995.69
2019-04-03T01:35:37.609Z,995.68
2019-04-03T01:36:37.633Z,995.70
2019-04-03T01:37:37.677Z,995.72
2019-04-03T01:38:37.580Z,995.72
2019-04-03T01:39:37.563Z,995.73
2019-04-03T01:40:37.552Z,995.68
2019-04-03T01:41:37.573Z,995.69
2019-04-03T01:42:37.539Z,995.61
2019-04-03T01:43:37.519Z,995.61
2019-04-03T01:44:37.509Z,995.63
2019-04-03T01:45:37.495Z,995.63
2019-04-03T01:46:37.512Z,995.66
2019-04-03T01:47:37.600Z,995.68
2019-04-03T01:48:37.471Z,995.66
2019-04-03T01:49:37.460Z,995.67
2019-04-03T01:50:37.443Z,995.63
2019-04-03T01:51:37.462Z,995.67
2019-04-03T01:52:37.420Z,995.69
2019-04-03T01:53:37.425Z,995.68
2019-04-03T01:54:37.400Z,995.74
2019-04-03T01:55:37.399Z,995.76
2019-04-03T01:56:37.408Z,995.82
2019-04-03T01:57:37.464Z,995.76
2019-04-03T01:58:37.350Z,995.78
2019-04-03T01:59:37.951Z,995.69
2019-04-03T02:00:37.915Z,995.67
2019-04-03T02:01:38.847Z,995.65
2019-04-03T02:02:38.703Z,995.68
2019-04-03T02:03:37.307Z,995.68
2019-04-03T02:04:37.282Z,995.68
2019-04-03T02:05:37.270Z,995.67
2019-04-03T02:06:37.291Z,995.65
2019-04-03T02:07:37.311Z,995.61
2019-04-03T02:08:37.250Z,995.62
2019-04-03T02:09:37.226Z,995.63
2019-04-03T02:10:37.225Z,995.72
2019-04-03T02:11:37.235Z,995.78
2019-04-03T02:12:37.221Z,995.78
2019-04-03T02:13:37.183Z,995.87
2019-04-03T02:14:37.181Z,995.88
2019-04-03T02:15:37.245Z,995.86
2019-04-03T02:16:37.284Z,995.85
2019-04-03T02:17:37.171Z,995.91
2019-04-03T02:18:37.127Z,995.92
2019-04-03T02:19:37.118Z,995.92
2019-04-03T02:20:37.102Z,995.93
2019-04-03T02:21:37.093Z,995.90
2019-04-03T02:22:37.108Z,995.89
2019-04-03T02:23:37.077Z,995.92
2019-04-03T02:24:37.064Z,995.95
2019-04-03T02:25:37.050Z,995.95
2019-04-03T02:26:37.055Z,995.93
2019-04-03T02:27:37.069Z,995.95
2019-04-03T02:28:37.017Z,995.96
2019-04-03T02:29:39.279Z,995.95
2019-04-03T02:30:37.006Z,995.94
2019-04-03T02:31:36.993Z,995.96
2019-04-03T02:32:37.005Z,995.95
2019-04-03T02:33:37.217Z,995.93
2019-04-03T02:34:37.047Z,995.92
2019-04-03T02:35:39.606Z,995.90
2019-04-03T02:36:37.046Z,995.86
2019-04-03T02:37:37.171Z,995.84
2019-04-03T02:38:36.902Z,995.85
2019-04-03T02:39:36.896Z,995.84
2019-04-03T02:40:36.989Z,995.80
2019-04-03T02:41:37.518Z,995.83
2019-04-03T02:42:40.249Z,995.84
2019-04-03T02:43:36.879Z,995.84
2019-04-03T02:44:37.115Z,995.89
2019-04-03T02:45:37.202Z,995.93
2019-04-03T02:46:36.816Z,995.86
2019-04-03T02:47:36.851Z,995.83
2019-04-03T02:48:38.300Z,995.88
2019-04-03T02:49:36.782Z,995.86
2019-04-03T02:50:36.769Z,995.90
2019-04-03T02:51:36.762Z,995.90
2019-04-03T02:52:36.747Z,995.84
2019-04-03T02:53:36.761Z,995.86
2019-04-03T02:54:36.982Z,995.88
2019-04-03T02:55:39.158Z,995.90
2019-04-03T02:56:36.704Z,995.87
2019-04-03T02:57:36.697Z,995.93
2019-04-03T02:58:36.810Z,995.88
2019-04-03T02:59:36.710Z,995.90
2019-04-03T03:00:36.814Z,995.81
2019-04-03T03:01:39.539Z,995.87
2019-04-03T03:02:36.638Z,995.84
2019-04-03T03:03:36.707Z,995.86
2019-04-03T03:04:36.616Z,995.89
2019-04-03T03:05:36.643Z,995.85
2019-04-03T03:06:36.744Z,995.88
2019-04-03T03:07:37.402Z,995.89
2019-04-03T03:08:40.355Z,995.90
2019-04-03T03:09:37.563Z,995.92
2019-04-03T03:10:36.548Z,995.98
2019-04-03T03:11:36.536Z,995.99
2019-04-03T03:12:36.582Z,995.95
2019-04-03T03:13:36.681Z,995.93
2019-04-03T03:14:39.381Z,995.93
2019-04-03T03:15:36.805Z,995.90
2019-04-03T03:16:36.573Z,995.87
2019-04-03T03:17:36.468Z,995.90
2019-04-03T03:18:36.762Z,995.90
2019-04-03T03:19:36.449Z,995.90
2019-04-03T03:20:38.520Z,995.85
2019-04-03T03:21:36.428Z,995.81
2019-04-03T03:22:36.614Z,995.82
2019-04-03T03:23:36.406Z,995.83
2019-04-03T03:24:36.440Z,995.82
2019-04-03T03:25:36.391Z,995.85
2019-04-03T03:26:37.716Z,995.81
2019-04-03T03:27:40.880Z,995.84
2019-04-03T03:28:37.366Z,995.79
2019-04-03T03:29:36.394Z,995.75
2019-04-03T03:30:45.188Z,995.75
2019-04-03T03:32:03.158Z,995.66
2019-04-03T03:32:37.779Z,995.67
2019-04-03T03:33:40.146Z,995.70
2019-04-03T03:34:50.905Z,995.70
2019-04-03T03:35:44.063Z,995.67
2019-04-03T03:36:37.958Z,995.68
2019-04-03T03:37:36.392Z,995.73
2019-04-03T03:38:39.364Z,995.70
2019-04-03T03:39:36.267Z,995.70
2019-04-03T03:40:36.225Z,995.73
2019-04-03T03:41:36.236Z,995.77
2019-04-03T03:42:36.195Z,995.81
2019-04-03T03:43:38.254Z,995.75
2019-04-03T03:44:36.180Z,995.84
2019-04-03T03:45:36.187Z,995.78
2019-04-03T03:46:36.333Z,995.73
2019-04-03T03:47:36.638Z,995.76
2019-04-03T03:48:36.390Z,995.78
2019-04-03T03:49:36.118Z,995.71
2019-04-03T03:50:36.143Z,995.72
2019-04-03T03:51:36.104Z,995.72
2019-04-03T03:52:37.288Z,995.71
2019-04-03T03:53:36.071Z,995.74
2019-04-03T03:54:36.059Z,995.74
2019-04-03T03:55:36.087Z,995.72
2019-04-03T03:56:36.046Z,995.78
2019-04-03T03:57:39.156Z,995.75
2019-04-03T03:58:36.018Z,995.65
2019-04-03T03:59:36.094Z,995.66
2019-04-03T04:00:36.024Z,995.62
2019-04-03T04:01:36.142Z,995.62
2019-04-03T04:02:36.722Z,995.64
2019-04-03T04:03:35.990Z,995.67
2019-04-03T04:04:36.351Z,995.69
2019-04-03T04:05:36.128Z,995.65
2019-04-03T04:06:36.732Z,995.67
2019-04-03T04:07:37.505Z,995.67
2019-04-03T04:08:35.913Z,995.72
2019-04-03T04:09:35.913Z,995.70
2019-04-03T04:10:37.031Z,995.65
2019-04-03T04:11:35.904Z,995.69
2019-04-03T04:12:39.781Z,995.69
2019-04-03T04:13:36.898Z,995.67
2019-04-03T04:14:36.035Z,995.72
2019-04-03T04:15:35.857Z,995.74
2019-04-03T04:16:37.233Z,995.82
2019-04-03T04:17:35.920Z,995.84
2019-04-03T04:18:36.038Z,995.85
2019-04-03T04:19:35.798Z,995.78
2019-04-03T04:20:38.129Z,995.85
2019-04-03T04:21:35.844Z,995.82
2019-04-03T04:22:35.783Z,995.84
2019-04-03T04:23:35.742Z,995.87
2019-04-03T04:24:35.830Z,995.87
2019-04-03T04:25:35.771Z,995.82
2019-04-03T04:26:35.734Z,995.80
2019-04-03T04:27:38.148Z,995.83
2019-04-03T04:28:35.684Z,995.83
2019-04-03T04:29:35.686Z,995.83
2019-04-03T04:30:35.777Z,995.80
2019-04-03T04:31:35.721Z,995.85
2019-04-03T04:32:35.640Z,995.79
2019-04-03T04:33:35.652Z,995.82
2019-04-03T04:34:35.857Z,995.82
2019-04-03T04:35:35.608Z,995.85
2019-04-03T04:36:35.631Z,995.89
2019-04-03T04:37:35.653Z,995.93
2019-04-03T04:38:35.578Z,995.95
2019-04-03T04:39:35.565Z,995.95
2019-04-03T04:40:35.565Z,995.94
2019-04-03T04:41:35.714Z,995.96
2019-04-03T04:42:35.531Z,995.97
2019-04-03T04:43:35.517Z,995.97
2019-04-03T04:44:35.512Z,995.97
2019-04-03T04:45:35.557Z,995.98
2019-04-03T04:46:35.522Z,995.97
2019-04-03T04:47:35.758Z,996.02
2019-04-03T04:48:35.464Z,995.99
2019-04-03T04:49:35.577Z,996.00
2019-04-03T04:50:35.448Z,995.96
2019-04-03T04:51:35.436Z,995.97
2019-04-03T04:52:35.457Z,995.91
2019-04-03T04:53:35.411Z,995.93
2019-04-03T04:54:35.396Z,995.94
2019-04-03T04:55:35.994Z,995.89
2019-04-03T04:56:35.804Z,995.88
2019-04-03T04:57:35.384Z,995.85
2019-04-03T04:58:35.380Z,995.87
2019-04-03T04:59:36.679Z,995.92
2019-04-03T05:00:35.329Z,995.91
2019-04-03T05:01:35.328Z,995.87
2019-04-03T05:02:35.333Z,995.91
2019-04-03T05:03:35.330Z,995.84
2019-04-03T05:04:35.287Z,995.82
2019-04-03T05:05:35.287Z,995.78
2019-04-03T05:06:35.360Z,995.80
2019-04-03T05:07:35.348Z,995.78
2019-04-03T05:08:35.243Z,995.78
2019-04-03T05:09:35.542Z,995.80
2019-04-03T05:10:36.928Z,995.79
2019-04-03T05:11:35.226Z,995.79
2019-04-03T05:12:35.469Z,995.79
2019-04-03T05:13:35.223Z,995.79
2019-04-03T05:14:35.387Z,995.80
2019-04-03T05:15:35.226Z,995.81
2019-04-03T05:16:35.154Z,995.80
2019-04-03T05:17:35.142Z,995.76
2019-04-03T05:18:35.384Z,995.65
2019-04-03T05:19:35.119Z,995.70
2019-04-03T05:20:35.143Z,995.73
2019-04-03T05:21:35.099Z,995.77
2019-04-03T05:22:35.094Z,995.76
2019-04-03T05:23:35.108Z,995.74
2019-04-03T05:24:35.115Z,995.77
2019-04-03T05:25:35.061Z,995.75
2019-04-03T05:26:35.145Z,995.74
2019-04-03T05:27:35.338Z,995.79
2019-04-03T05:28:35.052Z,995.66
2019-04-03T05:29:35.396Z,995.74
2019-04-03T05:30:37.539Z,995.72
2019-04-03T05:31:34.991Z,995.74
2019-04-03T05:32:34.992Z,995.79
2019-04-03T05:33:34.997Z,995.79
2019-04-03T05:34:34.955Z,995.75
2019-04-03T05:35:37.498Z,995.80
2019-04-03T05:36:35.147Z,995.78
2019-04-03T05:37:34.923Z,995.79
2019-04-03T05:38:37.414Z,995.80
2019-04-03T05:39:34.909Z,995.78
2019-04-03T05:40:34.890Z,995.72
2019-04-03T05:41:34.881Z,995.78
2019-04-03T05:42:34.867Z,995.74
2019-04-03T05:43:34.907Z,995.73
2019-04-03T05:44:34.854Z,995.71
2019-04-03T05:45:35.606Z,995.73
2019-04-03T05:46:36.539Z,995.71
2019-04-03T05:47:35.103Z,995.74
2019-04-03T05:48:34.825Z,995.76
2019-04-03T05:49:35.026Z,995.76
2019-04-03T05:50:36.659Z,995.77
2019-04-03T05:51:34.861Z,995.76
2019-04-03T05:52:35.126Z,995.79
2019-04-03T05:53:36.696Z,995.78
2019-04-03T05:54:34.737Z,995.86
2019-04-03T05:55:34.730Z,995.99
2019-04-03T05:56:34.892Z,995.93
2019-04-03T05:57:34.757Z,995.94
2019-04-03T05:58:34.722Z,996.01
2019-04-03T05:59:34.698Z,995.97
2019-04-03T06:00:37.520Z,995.95
2019-04-03T06:01:34.655Z,995.95
2019-04-03T06:02:34.650Z,995.90
2019-04-03T06:03:42.226Z,995.86
2019-04-03T06:04:35.934Z,995.86
2019-04-03T06:05:34.616Z,995.83
2019-04-03T06:06:34.872Z,995.79
2019-04-03T06:07:34.594Z,995.84
2019-04-03T06:08:35.269Z,995.86
2019-04-03T06:09:34.599Z,995.90
2019-04-03T06:10:37.157Z,995.95
2019-04-03T06:11:34.544Z,995.96
2019-04-03T06:12:36.752Z,995.97
2019-04-03T06:13:34.524Z,995.98
2019-04-03T06:14:34.536Z,995.98
2019-04-03T06:15:34.504Z,995.97
2019-04-03T06:16:34.491Z,995.97
2019-04-03T06:17:34.619Z,995.94
2019-04-03T06:18:34.467Z,995.97
2019-04-03T06:19:36.437Z,995.98
2019-04-03T06:20:34.455Z,996.00
2019-04-03T06:21:34.440Z,996.02
2019-04-03T06:22:34.645Z,996.01
2019-04-03T06:23:34.415Z,996.00
2019-04-03T06:24:34.688Z,996.00
2019-04-03T06:25:34.887Z,995.97
2019-04-03T06:26:35.724Z,995.96
2019-04-03T06:27:34.379Z,995.95
2019-04-03T06:28:34.521Z,995.94
2019-04-03T06:29:34.591Z,995.95
2019-04-03T06:30:34.358Z,995.96
2019-04-03T06:31:34.324Z,995.95
2019-04-03T06:32:34.334Z,995.93
2019-04-03T06:33:35.861Z,995.89
2019-04-03T06:34:34.294Z,995.90
2019-04-03T06:35:35.397Z,995.89
2019-04-03T06:36:34.277Z,995.92
2019-04-03T06:37:34.415Z,995.91
2019-04-03T06:38:34.402Z,995.89
2019-04-03T06:39:34.697Z,995.93
2019-04-03T06:40:35.457Z,995.95
2019-04-03T06:41:34.267Z,995.99
2019-04-03T06:42:34.389Z,995.98
2019-04-03T06:43:34.265Z,996.03
2019-04-03T06:44:34.191Z,996.02
2019-04-03T06:45:34.260Z,996.05
2019-04-03T06:46:34.389Z,996.05
2019-04-03T06:47:34.172Z,996.05
2019-04-03T06:48:34.643Z,996.08
2019-04-03T06:49:34.134Z,996.10
2019-04-03T06:50:34.113Z,996.07
2019-04-03T06:51:34.136Z,996.10
2019-04-03T06:52:34.124Z,996.06
2019-04-03T06:53:34.085Z,996.04
2019-04-03T06:54:34.229Z,996.05
2019-04-03T06:55:35.659Z,996.01
2019-04-03T06:56:34.054Z,995.98
2019-04-03T06:57:34.127Z,995.99
2019-04-03T06:58:38.660Z,995.97
2019-04-03T06:59:35.024Z,995.95
2019-04-03T07:00:34.009Z,995.94
2019-04-03T07:01:34.031Z,996.00
2019-04-03T07:02:34.135Z,995.98
2019-04-03T07:05:35.240Z,995.98
2019-04-03T07:06:33.965Z,996.00
2019-04-03T07:07:35.592Z,995.96
2019-04-03T07:08:36.122Z,995.91
2019-04-03T07:09:36.487Z,995.92
2019-04-03T07:10:34.536Z,995.89
2019-04-03T07:11:33.888Z,995.91
2019-04-03T07:12:33.975Z,995.89
2019-04-03T07:13:33.864Z,995.88
2019-04-03T07:14:33.853Z,995.94
2019-04-03T07:15:34.084Z,995.93
2019-04-03T07:16:33.827Z,995.95
2019-04-03T07:17:33.847Z,995.96
2019-04-03T07:18:36.070Z,995.95
2019-04-03T07:19:33.798Z,995.96
2019-04-03T07:20:33.977Z,995.95
2019-04-03T07:21:33.772Z,995.96
2019-04-03T07:22:34.093Z,995.96
2019-04-03T07:23:33.750Z,995.91
2019-04-03T07:24:33.900Z,995.97
2019-04-03T07:25:34.547Z,995.99
2019-04-03T07:26:35.668Z,995.99
2019-04-03T07:27:36.598Z,996.01
2019-04-03T07:28:33.706Z,996.00
2019-04-03T07:29:33.978Z,995.98
2019-04-03T07:30:33.678Z,995.97
2019-04-03T07:31:33.865Z,995.98
2019-04-03T07:32:33.692Z,995.97
2019-04-03T07:33:34.018Z,995.99
2019-04-03T07:34:34.487Z,995.96
2019-04-03T07:35:33.621Z,995.99
2019-04-03T07:36:33.621Z,995.97
2019-04-03T07:37:33.791Z,995.94
2019-04-03T07:38:33.587Z,995.97
2019-04-03T07:39:33.792Z,995.99
2019-04-03T07:40:33.601Z,995.97
2019-04-03T07:41:33.554Z,996.00
2019-04-03T07:42:33.571Z,995.98
2019-04-03T07:43:33.577Z,995.99
2019-04-03T07:44:33.734Z,996.04
2019-04-03T07:45:33.654Z,996.03
2019-04-03T07:46:33.957Z,996.07
2019-04-03T07:47:35.003Z,996.04
2019-04-03T07:48:33.698Z,996.08
2019-04-03T07:49:33.693Z,996.14
2019-04-03T07:50:36.341Z,996.16
2019-04-03T07:51:33.442Z,996.16
2019-04-03T07:52:33.719Z,996.19
2019-04-03T07:53:33.455Z,996.24
2019-04-03T07:54:33.560Z,996.22
2019-04-03T07:55:33.420Z,996.20
2019-04-03T07:56:33.579Z,996.22
2019-04-03T07:57:33.382Z,996.24
2019-04-03T07:58:33.399Z,996.22
2019-04-03T07:59:33.933Z,996.23
2019-04-03T08:00:33.343Z,996.26
2019-04-03T08:01:33.576Z,996.29
2019-04-03T08:02:33.924Z,996.28
2019-04-03T08:03:33.631Z,996.26
2019-04-03T08:04:33.297Z,996.22
2019-04-03T08:05:33.284Z,996.17
2019-04-03T08:06:35.838Z,996.20
2019-04-03T08:07:33.276Z,996.15
2019-04-03T08:08:33.288Z,996.17
2019-04-03T08:09:33.250Z,996.22
2019-04-03T08:10:33.233Z,996.29
2019-04-03T08:11:33.557Z,996.29
2019-04-03T08:12:35.691Z,996.30
2019-04-03T08:13:33.225Z,996.28
2019-04-03T08:14:33.223Z,996.30
2019-04-03T08:15:33.178Z,996.29
2019-04-03T08:16:33.378Z,996.27
2019-04-03T08:17:33.162Z,996.29
2019-04-03T08:18:33.468Z,996.26
2019-04-03T08:19:33.158Z,996.27
2019-04-03T08:20:33.124Z,996.28
2019-04-03T08:21:33.112Z,996.28
2019-04-03T08:22:33.954Z,996.27
2019-04-03T08:23:34.674Z,996.29
2019-04-03T08:24:33.115Z,996.30
2019-04-03T08:25:33.262Z,996.33
2019-04-03T08:26:33.075Z,996.40
2019-04-03T08:27:33.056Z,996.45
2019-04-03T08:28:33.236Z,996.46
2019-04-03T08:29:34.712Z,996.51
2019-04-03T08:30:33.331Z,996.49
2019-04-03T08:31:33.007Z,996.53
2019-04-03T08:32:32.991Z,996.54
2019-04-03T08:33:33.643Z,996.53
2019-04-03T08:34:33.049Z,996.55
2019-04-03T08:35:35.476Z,996.48
2019-04-03T08:36:32.969Z,996.51
2019-04-03T08:37:33.262Z,996.49
2019-04-03T08:38:33.059Z,996.42
2019-04-03T08:39:32.915Z,996.44
2019-04-03T08:40:32.947Z,996.45
2019-04-03T08:41:32.889Z,996.45
2019-04-03T08:42:33.088Z,996.43
2019-04-03T08:43:33.176Z,996.44
2019-04-03T08:44:33.824Z,996.40
2019-04-03T08:45:33.008Z,996.40
2019-04-03T08:46:32.980Z,996.40
2019-04-03T08:47:33.124Z,996.43
2019-04-03T08:48:32.898Z,996.45
2019-04-03T08:49:32.832Z,996.42
2019-04-03T08:50:32.830Z,996.40
2019-04-03T08:52:36.277Z,996.46
2019-04-03T08:53:32.766Z,996.45
2019-04-03T08:54:32.964Z,996.44
2019-04-03T08:55:32.987Z,996.42
2019-04-03T08:56:32.994Z,996.44
2019-04-03T08:57:32.710Z,996.46
2019-04-03T08:58:32.699Z,996.44
2019-04-03T08:59:32.835Z,996.45
2019-04-03T09:00:33.192Z,996.43
2019-04-03T09:01:35.941Z,996.43
2019-04-03T09:02:32.658Z,996.45
2019-04-03T09:03:32.662Z,996.43
2019-04-03T09:04:32.674Z,996.43
2019-04-03T09:05:32.947Z,996.50
2019-04-03T09:06:32.740Z,996.47
2019-04-03T09:07:32.612Z,996.53
2019-04-03T09:08:32.603Z,996.46
2019-04-03T09:09:34.900Z,996.49
2019-04-03T09:10:36.369Z,996.47
2019-04-03T09:11:34.092Z,996.50
2019-04-03T09:12:32.574Z,996.50
2019-04-03T09:13:32.536Z,996.52
2019-04-03T09:14:32.578Z,996.53
2019-04-03T09:15:32.552Z,996.54
2019-04-03T09:16:32.502Z,996.54
2019-04-03T09:17:34.059Z,996.52
2019-04-03T09:18:32.660Z,996.48
2019-04-03T09:19:32.611Z,996.47
2019-04-03T09:20:34.891Z,996.49
2019-04-03T09:21:32.459Z,996.44
2019-04-03T09:22:32.457Z,996.44
2019-04-03T09:23:32.439Z,996.46
2019-04-03T09:24:32.780Z,996.51
2019-04-03T09:25:32.933Z,996.45
2019-04-03T09:26:37.060Z,996.47
2019-04-03T09:27:32.532Z,996.52
2019-04-03T09:28:33.260Z,996.48
2019-04-03T09:29:32.385Z,996.46
2019-04-03T09:30:32.642Z,996.49
2019-04-03T09:31:33.037Z,996.47
2019-04-03T09:32:32.334Z,996.47
2019-04-03T09:33:32.328Z,996.44
2019-04-03T09:34:34.288Z,996.43
2019-04-03T09:35:33.198Z,996.39
2019-04-03T09:36:34.345Z,996.41
2019-04-03T09:37:32.315Z,996.41
2019-04-03T09:38:35.291Z,996.39
2019-04-03T09:39:32.261Z,996.36
2019-04-03T09:40:32.269Z,996.37
2019-04-03T09:41:32.267Z,996.36
2019-04-03T09:42:32.273Z,996.32
2019-04-03T09:43:32.216Z,996.29
2019-04-03T09:44:32.246Z,996.29
2019-04-03T09:45:32.279Z,996.30
2019-04-03T09:46:32.376Z,996.27
2019-04-03T09:48:34.784Z,996.42
2019-04-03T09:49:32.135Z,996.44
2019-04-03T09:50:32.124Z,996.46
2019-04-03T09:51:32.135Z,996.41
2019-04-03T09:52:39.509Z,996.39
2019-04-03T09:53:33.095Z,996.34
2019-04-03T09:54:32.087Z,996.33
2019-04-03T09:55:35.872Z,996.35
2019-04-03T09:56:33.061Z,996.33
2019-04-03T09:57:32.488Z,996.33
2019-04-03T09:58:34.582Z,996.33
2019-04-03T09:59:32.026Z,996.35
2019-04-03T10:00:32.012Z,996.35
2019-04-03T10:01:32.038Z,996.41
2019-04-03T10:02:32.066Z,996.40
2019-04-03T10:03:32.256Z,996.36
2019-04-03T10:04:31.975Z,996.31
2019-04-03T10:05:31.961Z,996.34
2019-04-03T10:06:32.282Z,996.33
2019-04-03T10:07:33.674Z,996.29
2019-04-03T10:08:31.965Z,996.32
2019-04-03T10:09:32.101Z,996.28
2019-04-03T10:10:31.900Z,996.24
2019-04-03T10:11:31.892Z,996.20
2019-04-03T10:12:32.661Z,996.16
2019-04-03T10:13:31.866Z,996.14
2019-04-03T10:14:31.873Z,996.14
2019-04-03T10:15:32.034Z,996.14
2019-04-03T10:16:32.924Z,996.12
2019-04-03T10:18:32.964Z,996.16
2019-04-03T10:19:31.804Z,996.16
2019-04-03T10:20:31.900Z,996.17
2019-04-03T10:21:33.335Z,996.23
2019-04-03T10:22:31.768Z,996.20
2019-04-03T10:23:31.871Z,996.18
2019-04-03T10:24:32.203Z,996.20
2019-04-03T10:25:31.745Z,996.22
2019-04-03T10:26:31.894Z,996.20
2019-04-03T10:27:31.720Z,996.25
2019-04-03T10:28:32.004Z,996.23
2019-04-03T10:29:31.692Z,996.17
2019-04-03T10:30:31.804Z,996.16
2019-04-03T10:31:31.671Z,996.05
2019-04-03T10:32:31.657Z,995.99
2019-04-03T10:33:32.494Z,995.91
2019-04-03T10:34:33.332Z,995.87
2019-04-03T10:35:31.727Z,995.84
2019-04-03T10:36:31.760Z,995.85
2019-04-03T10:37:31.601Z,995.94
2019-04-03T10:38:31.662Z,995.99
2019-04-03T10:39:31.579Z,996.07
2019-04-03T10:40:31.569Z,996.15
2019-04-03T10:41:31.571Z,996.19
2019-04-03T10:42:31.866Z,996.21
2019-04-03T10:43:31.575Z,996.19
2019-04-03T10:44:31.529Z,996.25
2019-04-03T10:45:31.535Z,996.21
2019-04-03T10:46:31.499Z,996.17
2019-04-03T10:47:41.653Z,996.20
2019-04-03T10:48:32.512Z,996.20
2019-04-03T10:49:32.461Z,996.21
2019-04-03T10:50:31.642Z,996.21
2019-04-03T10:51:31.879Z,996.18
2019-04-03T10:52:31.636Z,996.21
2019-04-03T10:53:31.459Z,996.22
2019-04-03T10:54:31.484Z,996.22
2019-04-03T10:55:31.405Z,996.18
2019-04-03T10:56:32.268Z,996.17
2019-04-03T10:57:31.760Z,996.18
2019-04-03T10:58:31.363Z,996.16
2019-04-03T10:59:31.621Z,996.19
2019-04-03T11:00:31.343Z,996.19
2019-04-03T11:01:31.339Z,996.16
2019-04-03T11:02:31.325Z,996.20
2019-04-03T11:03:31.634Z,996.15
2019-04-03T11:04:31.357Z,996.16
2019-04-03T11:05:31.507Z,996.16
2019-04-03T11:06:31.301Z,996.11
2019-04-03T11:07:31.334Z,996.09
2019-04-03T11:08:31.280Z,996.13
2019-04-03T11:09:31.279Z,996.12
2019-04-03T11:10:31.235Z,996.12
2019-04-03T11:11:31.398Z,996.10
2019-04-03T11:12:31.925Z,996.09
2019-04-03T11:13:32.256Z,996.02
2019-04-03T11:14:31.215Z,996.02
2019-04-03T11:15:31.386Z,996.02
2019-04-03T11:16:31.173Z,995.96
2019-04-03T11:17:31.161Z,995.92
2019-04-03T11:18:31.314Z,995.96
2019-04-03T11:19:31.209Z,995.93
2019-04-03T11:20:31.123Z,995.92
2019-04-03T11:21:31.138Z,995.90
2019-04-03T11:22:41.134Z,995.91
2019-04-03T11:23:40.534Z,995.91
2019-04-03T11:24:32.451Z,995.88
2019-04-03T11:25:31.062Z,995.84
2019-04-03T11:26:31.099Z,995.79
2019-04-03T11:27:42.799Z,995.78
2019-04-03T11:28:32.041Z,995.73
2019-04-03T11:29:31.052Z,995.75
2019-04-03T11:30:31.007Z,995.67
2019-04-03T11:31:33.529Z,995.67
2019-04-03T11:32:32.037Z,995.66
2019-04-03T11:33:30.990Z,995.67
2019-04-03T11:34:31.081Z,995.68
2019-04-03T11:35:30.951Z,995.63
2019-04-03T11:36:31.271Z,995.65
2019-04-03T11:37:32.999Z,995.63
2019-04-03T11:38:31.300Z,995.63
2019-04-03T11:39:30.998Z,995.68
2019-04-03T11:40:31.160Z,995.65
2019-04-03T11:41:31.240Z,995.67
2019-04-03T11:42:31.121Z,995.67
2019-04-03T11:43:31.973Z,995.60
2019-04-03T11:44:30.852Z,995.64
2019-04-03T11:45:30.882Z,995.60
2019-04-03T11:46:30.933Z,995.58
2019-04-03T11:47:31.114Z,995.51
2019-04-03T11:48:30.823Z,995.48
2019-04-03T11:49:30.808Z,995.52
2019-04-03T11:50:31.001Z,995.51
2019-04-03T11:51:33.647Z,995.46
2019-04-03T11:52:30.985Z,995.43
2019-04-03T11:53:30.772Z,995.45
2019-04-03T11:54:30.749Z,995.41
2019-04-03T11:55:31.031Z,995.44
2019-04-03T11:56:30.746Z,995.38
2019-04-03T11:57:30.793Z,995.38
2019-04-03T11:58:30.949Z,995.32
2019-04-03T11:59:30.680Z,995.27
2019-04-03T12:00:30.984Z,995.19
2019-04-03T12:01:30.920Z,995.20
2019-04-03T12:02:30.710Z,995.14
2019-04-03T12:03:31.079Z,995.13
2019-04-03T12:04:30.637Z,995.05
2019-04-03T12:05:30.642Z,995.03
2019-04-03T12:06:31.041Z,995.03
2019-04-03T12:07:30.605Z,994.96
2019-04-03T12:08:30.585Z,994.98
2019-04-03T12:09:31.595Z,995.00
2019-04-03T12:10:30.960Z,995.04
2019-04-03T12:11:30.586Z,995.02
2019-04-03T12:12:30.592Z,994.96
2019-04-03T12:13:30.784Z,994.96
2019-04-03T12:14:30.519Z,994.98
2019-04-03T12:15:30.506Z,995.01
2019-04-03T12:16:30.641Z,995.02
2019-04-03T12:17:31.024Z,995.02
2019-04-03T12:18:33.293Z,994.96
2019-04-03T12:19:30.460Z,995.02
2019-04-03T12:20:30.551Z,995.03
2019-04-03T12:21:30.466Z,995.06
2019-04-03T12:22:30.579Z,995.11
2019-04-03T12:23:30.420Z,995.07
2019-04-03T12:24:30.495Z,995.16
2019-04-03T12:25:31.466Z,995.20
2019-04-03T12:26:30.879Z,995.20
2019-04-03T12:27:30.372Z,995.15
2019-04-03T12:28:30.605Z,995.22
2019-04-03T12:29:30.364Z,995.20
2019-04-03T12:30:30.433Z,995.21
2019-04-03T12:31:30.355Z,995.16
2019-04-03T12:32:37.476Z,995.13
2019-04-03T12:33:31.309Z,995.14
2019-04-03T12:34:30.533Z,995.09
2019-04-03T12:35:30.283Z,995.15